sensor_id;sensor_type;location;lat;lon;timestamp;temperature;humidity
56162;DHT22;42045;52.986;6.014;2023-06-05T00:01:43;8.90;99.90
56162;DHT22;42045;52.986;6.014;2023-06-05T00:04:09;8.90;99.90
56162;DHT22;42045;52.986;6.014;2023-06-05T00:06:35;8.80;99.90
56162;DHT22;42045;52.986;6.014;2023-06-05T00:09:05;8.80;99.90
56162;DHT22;42045;52.986;6.014;2023-06-05T00:11:32;8.80;99.90
56162;DHT22;42045;52.986;6.014;2023-06-05T00:13:57;8.70;99.90
56162;DHT22;42045;52.986;6.014;2023-06-05T00:16:23;8.70;99.90
56162;DHT22;42045;52.986;6.014;2023-06-05T00:18:49;8.70;99.90
56162;DHT22;42045;52.986;6.014;2023-06-05T00:21:15;8.60;99.90
56162;DHT22;42045;52.986;6.014;2023-06-05T00:23:41;8.60;99.90
56162;DHT22;42045;52.986;6.014;2023-06-05T00:26:07;8.50;99.90
56162;DHT22;42045;52.986;6.014;2023-06-05T00:28:33;8.50;99.90
56162;DHT22;42045;52.986;6.014;2023-06-05T00:30:59;8.50;99.90
56162;DHT22;42045;52.986;6.014;2023-06-05T00:33:26;8.60;99.90
56162;DHT22;42045;52.986;6.014;2023-06-05T00:35:52;8.60;99.90
56162;DHT22;42045;52.986;6.014;2023-06-05T00:38:18;8.70;99.90
56162;DHT22;42045;52.986;6.014;2023-06-05T00:40:44;8.70;99.90
56162;DHT22;42045;52.986;6.014;2023-06-05T00:43:09;8.80;99.90
56162;DHT22;42045;52.986;6.014;2023-06-05T00:45:35;8.80;99.90
56162;DHT22;42045;52.986;6.014;2023-06-05T00:48:02;8.90;99.90
56162;DHT22;42045;52.986;6.014;2023-06-05T00:50:27;8.90;99.90
56162;DHT22;42045;52.986;6.014;2023-06-05T00:52:56;9.00;99.90
56162;DHT22;42045;52.986;6.014;2023-06-05T00:55:22;9.10;99.90
56162;DHT22;42045;52.986;6.014;2023-06-05T00:57:48;9.20;99.90
56162;DHT22;42045;52.986;6.014;2023-06-05T01:00:14;9.30;99.90
56162;DHT22;42045;52.986;6.014;2023-06-05T01:02:40;9.30;99.90
56162;DHT22;42045;52.986;6.014;2023-06-05T01:05:07;9.40;99.90
56162;DHT22;42045;52.986;6.014;2023-06-05T01:07:33;9.40;99.90
56162;DHT22;42045;52.986;6.014;2023-06-05T01:10:04;9.50;99.90
56162;DHT22;42045;52.986;6.014;2023-06-05T01:15:07;9.60;99.90
56162;DHT22;42045;52.986;6.014;2023-06-05T01:17:33;9.60;99.90
56162;DHT22;42045;52.986;6.014;2023-06-05T01:20:00;9.60;99.90
56162;DHT22;42045;52.986;6.014;2023-06-05T01:22:30;9.70;99.90
56162;DHT22;42045;52.986;6.014;2023-06-05T01:24:56;9.70;99.90
56162;DHT22;42045;52.986;6.014;2023-06-05T01:27:46;9.70;99.90
56162;DHT22;42045;52.986;6.014;2023-06-05T01:30:54;9.70;99.90
56162;DHT22;42045;52.986;6.014;2023-06-05T01:33:31;9.80;99.90
56162;DHT22;42045;52.986;6.014;2023-06-05T01:36:10;9.70;99.90
56162;DHT22;42045;52.986;6.014;2023-06-05T01:38:38;9.80;99.90
56162;DHT22;42045;52.986;6.014;2023-06-05T01:41:04;9.80;99.90
56162;DHT22;42045;52.986;6.014;2023-06-05T01:43:31;9.90;99.90
56162;DHT22;42045;52.986;6.014;2023-06-05T01:45:59;9.90;99.90
56162;DHT22;42045;52.986;6.014;2023-06-05T01:48:26;9.90;99.90
56162;DHT22;42045;52.986;6.014;2023-06-05T01:50:57;10.00;99.90
56162;DHT22;42045;52.986;6.014;2023-06-05T01:53:24;10.00;99.90
56162;DHT22;42045;52.986;6.014;2023-06-05T01:55:50;10.00;99.90
56162;DHT22;42045;52.986;6.014;2023-06-05T01:58:20;10.10;99.90
56162;DHT22;42045;52.986;6.014;2023-06-05T02:00:46;10.10;99.90
56162;DHT22;42045;52.986;6.014;2023-06-05T02:03:13;10.10;99.90
56162;DHT22;42045;52.986;6.014;2023-06-05T02:05:41;10.10;99.90
56162;DHT22;42045;52.986;6.014;2023-06-05T02:08:07;10.10;99.90
56162;DHT22;42045;52.986;6.014;2023-06-05T02:10:35;10.20;99.90
56162;DHT22;42045;52.986;6.014;2023-06-05T02:13:01;10.20;99.90
56162;DHT22;42045;52.986;6.014;2023-06-05T02:15:26;10.20;99.90
56162;DHT22;42045;52.986;6.014;2023-06-05T02:17:54;10.30;99.90
56162;DHT22;42045;52.986;6.014;2023-06-05T02:20:23;10.30;99.90
56162;DHT22;42045;52.986;6.014;2023-06-05T02:22:49;10.30;99.90
56162;DHT22;42045;52.986;6.014;2023-06-05T02:25:18;10.40;99.90
56162;DHT22;42045;52.986;6.014;2023-06-05T02:27:44;10.50;99.90
56162;DHT22;42045;52.986;6.014;2023-06-05T02:30:10;10.40;99.90
56162;DHT22;42045;52.986;6.014;2023-06-05T02:32:37;10.50;99.90
56162;DHT22;42045;52.986;6.014;2023-06-05T02:35:07;10.50;99.90
56162;DHT22;42045;52.986;6.014;2023-06-05T02:37:33;10.60;99.90
56162;DHT22;42045;52.986;6.014;2023-06-05T02:40:05;10.60;99.90
56162;DHT22;42045;52.986;6.014;2023-06-05T02:42:34;10.60;99.90
56162;DHT22;42045;52.986;6.014;2023-06-05T02:44:59;10.60;99.90
56162;DHT22;42045;52.986;6.014;2023-06-05T02:47:25;10.60;99.90
56162;DHT22;42045;52.986;6.014;2023-06-05T02:49:51;10.70;99.90
56162;DHT22;42045;52.986;6.014;2023-06-05T02:52:16;10.60;99.90
56162;DHT22;42045;52.986;6.014;2023-06-05T02:54:42;10.60;99.90
56162;DHT22;42045;52.986;6.014;2023-06-05T02:57:08;10.70;99.90
56162;DHT22;42045;52.986;6.014;2023-06-05T02:59:37;10.60;99.90
56162;DHT22;42045;52.986;6.014;2023-06-05T03:02:05;10.60;99.90
56162;DHT22;42045;52.986;6.014;2023-06-05T03:04:31;10.60;99.90
56162;DHT22;42045;52.986;6.014;2023-06-05T03:06:58;10.60;99.90
56162;DHT22;42045;52.986;6.014;2023-06-05T03:09:24;10.60;99.90
56162;DHT22;42045;52.986;6.014;2023-06-05T03:11:50;10.60;99.90
56162;DHT22;42045;52.986;6.014;2023-06-05T03:14:16;10.60;99.90
56162;DHT22;42045;52.986;6.014;2023-06-05T03:16:41;10.60;99.90
56162;DHT22;42045;52.986;6.014;2023-06-05T03:19:09;10.70;99.90
56162;DHT22;42045;52.986;6.014;2023-06-05T03:21:36;10.60;99.90
56162;DHT22;42045;52.986;6.014;2023-06-05T03:24:04;10.70;99.90
56162;DHT22;42045;52.986;6.014;2023-06-05T03:26:31;10.70;99.90
56162;DHT22;42045;52.986;6.014;2023-06-05T03:28:57;10.70;99.90
56162;DHT22;42045;52.986;6.014;2023-06-05T03:31:23;10.70;99.90
56162;DHT22;42045;52.986;6.014;2023-06-05T03:33:49;10.70;99.90
56162;DHT22;42045;52.986;6.014;2023-06-05T03:36:15;10.70;99.90
56162;DHT22;42045;52.986;6.014;2023-06-05T03:38:43;10.80;99.90
56162;DHT22;42045;52.986;6.014;2023-06-05T03:41:09;10.80;99.90
56162;DHT22;42045;52.986;6.014;2023-06-05T03:43:34;10.80;99.90
56162;DHT22;42045;52.986;6.014;2023-06-05T03:46:00;10.90;99.90
56162;DHT22;42045;52.986;6.014;2023-06-05T03:48:26;10.90;99.90
56162;DHT22;42045;52.986;6.014;2023-06-05T03:50:52;10.90;99.90
56162;DHT22;42045;52.986;6.014;2023-06-05T03:53:19;10.90;99.90
56162;DHT22;42045;52.986;6.014;2023-06-05T03:55:45;10.90;99.90
56162;DHT22;42045;52.986;6.014;2023-06-05T03:58:13;10.90;99.90
56162;DHT22;42045;52.986;6.014;2023-06-05T04:00:44;10.90;99.90
56162;DHT22;42045;52.986;6.014;2023-06-05T04:03:10;11.00;99.90
56162;DHT22;42045;52.986;6.014;2023-06-05T04:05:37;10.90;99.90
56162;DHT22;42045;52.986;6.014;2023-06-05T04:08:04;11.00;99.90
56162;DHT22;42045;52.986;6.014;2023-06-05T04:10:30;11.00;99.90
56162;DHT22;42045;52.986;6.014;2023-06-05T04:12:56;11.10;99.90
56162;DHT22;42045;52.986;6.014;2023-06-05T04:15:23;11.20;99.90
56162;DHT22;42045;52.986;6.014;2023-06-05T04:17:49;11.20;99.90
56162;DHT22;42045;52.986;6.014;2023-06-05T04:20:14;11.30;99.90
56162;DHT22;42045;52.986;6.014;2023-06-05T04:22:42;11.30;99.90
56162;DHT22;42045;52.986;6.014;2023-06-05T04:25:08;11.30;99.90
56162;DHT22;42045;52.986;6.014;2023-06-05T04:27:40;11.40;99.90
56162;DHT22;42045;52.986;6.014;2023-06-05T04:30:07;11.50;99.90
56162;DHT22;42045;52.986;6.014;2023-06-05T04:32:33;11.50;99.90
56162;DHT22;42045;52.986;6.014;2023-06-05T04:37:29;11.70;99.90
56162;DHT22;42045;52.986;6.014;2023-06-05T04:39:55;11.70;99.90
56162;DHT22;42045;52.986;6.014;2023-06-05T04:42:21;11.80;99.90
56162;DHT22;42045;52.986;6.014;2023-06-05T04:45:04;11.90;99.90
56162;DHT22;42045;52.986;6.014;2023-06-05T04:47:31;12.00;99.90
56162;DHT22;42045;52.986;6.014;2023-06-05T04:50:02;12.10;99.90
56162;DHT22;42045;52.986;6.014;2023-06-05T04:52:31;12.20;99.90
56162;DHT22;42045;52.986;6.014;2023-06-05T04:55:02;12.20;99.90
56162;DHT22;42045;52.986;6.014;2023-06-05T04:57:28;12.30;99.90
56162;DHT22;42045;52.986;6.014;2023-06-05T04:59:54;12.30;99.90
56162;DHT22;42045;52.986;6.014;2023-06-05T05:02:20;12.40;99.90
56162;DHT22;42045;52.986;6.014;2023-06-05T05:04:47;12.40;99.90
56162;DHT22;42045;52.986;6.014;2023-06-05T05:07:12;12.50;99.90
56162;DHT22;42045;52.986;6.014;2023-06-05T05:09:45;12.60;99.90
56162;DHT22;42045;52.986;6.014;2023-06-05T05:12:11;12.60;99.90
56162;DHT22;42045;52.986;6.014;2023-06-05T05:14:38;12.60;99.90
56162;DHT22;42045;52.986;6.014;2023-06-05T05:17:05;12.70;99.90
56162;DHT22;42045;52.986;6.014;2023-06-05T05:19:31;12.80;99.90
56162;DHT22;42045;52.986;6.014;2023-06-05T05:21:57;12.80;99.90
56162;DHT22;42045;52.986;6.014;2023-06-05T05:24:23;12.90;99.90
56162;DHT22;42045;52.986;6.014;2023-06-05T05:26:51;13.10;99.90
56162;DHT22;42045;52.986;6.014;2023-06-05T05:29:16;13.00;99.90
56162;DHT22;42045;52.986;6.014;2023-06-05T05:31:43;13.10;99.90
56162;DHT22;42045;52.986;6.014;2023-06-05T05:34:08;13.00;99.90
56162;DHT22;42045;52.986;6.014;2023-06-05T05:36:34;13.20;99.90
56162;DHT22;42045;52.986;6.014;2023-06-05T05:39:02;13.20;99.90
56162;DHT22;42045;52.986;6.014;2023-06-05T05:41:28;13.10;99.90
56162;DHT22;42045;52.986;6.014;2023-06-05T05:43:54;13.20;99.90
56162;DHT22;42045;52.986;6.014;2023-06-05T05:46:19;13.20;99.90
56162;DHT22;42045;52.986;6.014;2023-06-05T05:48:45;13.20;99.90
56162;DHT22;42045;52.986;6.014;2023-06-05T05:51:11;13.30;99.90
56162;DHT22;42045;52.986;6.014;2023-06-05T05:53:36;13.50;99.90
56162;DHT22;42045;52.986;6.014;2023-06-05T05:56:02;13.60;99.90
56162;DHT22;42045;52.986;6.014;2023-06-05T05:58:31;13.60;99.90
56162;DHT22;42045;52.986;6.014;2023-06-05T06:01:00;13.50;99.90
56162;DHT22;42045;52.986;6.014;2023-06-05T06:03:26;13.40;99.90
56162;DHT22;42045;52.986;6.014;2023-06-05T06:05:52;13.50;99.90
56162;DHT22;42045;52.986;6.014;2023-06-05T06:08:18;13.70;99.90
56162;DHT22;42045;52.986;6.014;2023-06-05T06:10:44;13.70;99.90
56162;DHT22;42045;52.986;6.014;2023-06-05T06:13:11;13.90;99.90
56162;DHT22;42045;52.986;6.014;2023-06-05T06:15:37;13.90;99.90
56162;DHT22;42045;52.986;6.014;2023-06-05T06:18:05;14.10;99.90
56162;DHT22;42045;52.986;6.014;2023-06-05T06:20:31;14.10;99.90
56162;DHT22;42045;52.986;6.014;2023-06-05T06:22:59;14.10;99.90
56162;DHT22;42045;52.986;6.014;2023-06-05T06:25:24;14.30;99.90
56162;DHT22;42045;52.986;6.014;2023-06-05T06:27:54;14.50;99.90
56162;DHT22;42045;52.986;6.014;2023-06-05T06:30:20;14.80;99.90
56162;DHT22;42045;52.986;6.014;2023-06-05T06:32:47;15.10;99.90
56162;DHT22;42045;52.986;6.014;2023-06-05T06:35:13;15.40;99.90
56162;DHT22;42045;52.986;6.014;2023-06-05T06:37:40;15.70;99.90
56162;DHT22;42045;52.986;6.014;2023-06-05T06:40:06;16.10;99.90
56162;DHT22;42045;52.986;6.014;2023-06-05T06:42:35;16.50;99.90
56162;DHT22;42045;52.986;6.014;2023-06-05T06:45:01;17.50;99.90
56162;DHT22;42045;52.986;6.014;2023-06-05T06:47:27;19.10;99.90
56162;DHT22;42045;52.986;6.014;2023-06-05T06:49:53;20.60;99.90
56162;DHT22;42045;52.986;6.014;2023-06-05T06:52:19;21.10;99.90
56162;DHT22;42045;52.986;6.014;2023-06-05T06:54:46;21.40;99.90
56162;DHT22;42045;52.986;6.014;2023-06-05T06:57:11;21.90;99.90
56162;DHT22;42045;52.986;6.014;2023-06-05T06:59:38;22.50;99.40
56162;DHT22;42045;52.986;6.014;2023-06-05T07:02:18;23.20;99.00
56162;DHT22;42045;52.986;6.014;2023-06-05T07:04:44;24.00;97.50
56162;DHT22;42045;52.986;6.014;2023-06-05T07:07:14;24.60;96.20
56162;DHT22;42045;52.986;6.014;2023-06-05T07:09:41;24.70;94.50
56162;DHT22;42045;52.986;6.014;2023-06-05T07:12:12;25.10;95.40
56162;DHT22;42045;52.986;6.014;2023-06-05T07:14:39;25.20;94.50
56162;DHT22;42045;52.986;6.014;2023-06-05T07:17:05;25.40;94.60
56162;DHT22;42045;52.986;6.014;2023-06-05T07:19:32;25.40;92.60
56162;DHT22;42045;52.986;6.014;2023-06-05T07:21:59;24.60;93.30
56162;DHT22;42045;52.986;6.014;2023-06-05T07:24:26;23.80;94.40
56162;DHT22;42045;52.986;6.014;2023-06-05T07:26:54;23.10;95.20
56162;DHT22;42045;52.986;6.014;2023-06-05T07:29:24;22.40;94.90
56162;DHT22;42045;52.986;6.014;2023-06-05T07:31:51;22.20;95.30
56162;DHT22;42045;52.986;6.014;2023-06-05T07:34:20;22.10;95.80
56162;DHT22;42045;52.986;6.014;2023-06-05T07:36:47;21.90;95.60
56162;DHT22;42045;52.986;6.014;2023-06-05T07:39:14;21.30;96.30
56162;DHT22;42045;52.986;6.014;2023-06-05T07:41:41;21.20;96.30
56162;DHT22;42045;52.986;6.014;2023-06-05T07:44:10;21.00;96.70
56162;DHT22;42045;52.986;6.014;2023-06-05T07:46:39;21.10;97.20
56162;DHT22;42045;52.986;6.014;2023-06-05T07:49:05;20.90;97.90
56162;DHT22;42045;52.986;6.014;2023-06-05T07:51:30;21.10;97.60
56162;DHT22;42045;52.986;6.014;2023-06-05T07:54:11;21.10;97.60
56162;DHT22;42045;52.986;6.014;2023-06-05T07:56:37;21.10;97.80
56162;DHT22;42045;52.986;6.014;2023-06-05T07:59:04;20.90;97.60
56162;DHT22;42045;52.986;6.014;2023-06-05T08:01:30;20.80;98.50
56162;DHT22;42045;52.986;6.014;2023-06-05T08:03:57;21.10;98.10
56162;DHT22;42045;52.986;6.014;2023-06-05T08:06:26;21.20;98.30
56162;DHT22;42045;52.986;6.014;2023-06-05T08:08:51;20.30;97.80
56162;DHT22;42045;52.986;6.014;2023-06-05T08:11:17;19.90;98.00
56162;DHT22;42045;52.986;6.014;2023-06-05T08:13:43;19.80;98.20
56162;DHT22;42045;52.986;6.014;2023-06-05T08:16:09;20.00;98.80
56162;DHT22;42045;52.986;6.014;2023-06-05T08:18:34;20.10;99.00
56162;DHT22;42045;52.986;6.014;2023-06-05T08:21:01;20.40;98.60
56162;DHT22;42045;52.986;6.014;2023-06-05T08:23:27;20.30;98.60
56162;DHT22;42045;52.986;6.014;2023-06-05T08:25:53;19.80;97.70
56162;DHT22;42045;52.986;6.014;2023-06-05T08:28:19;19.90;98.90
56162;DHT22;42045;52.986;6.014;2023-06-05T08:30:45;20.00;98.40
56162;DHT22;42045;52.986;6.014;2023-06-05T08:33:11;20.00;98.70
56162;DHT22;42045;52.986;6.014;2023-06-05T08:35:40;19.70;98.30
56162;DHT22;42045;52.986;6.014;2023-06-05T08:38:06;20.00;98.70
56162;DHT22;42045;52.986;6.014;2023-06-05T08:40:33;19.90;98.70
56162;DHT22;42045;52.986;6.014;2023-06-05T08:43:02;19.70;99.40
56162;DHT22;42045;52.986;6.014;2023-06-05T08:45:30;20.00;98.50
56162;DHT22;42045;52.986;6.014;2023-06-05T08:47:59;20.00;98.90
56162;DHT22;42045;52.986;6.014;2023-06-05T08:50:27;20.00;99.60
56162;DHT22;42045;52.986;6.014;2023-06-05T08:52:56;19.80;99.10
56162;DHT22;42045;52.986;6.014;2023-06-05T08:55:24;20.30;99.60
56162;DHT22;42045;52.986;6.014;2023-06-05T08:57:50;20.50;99.20
56162;DHT22;42045;52.986;6.014;2023-06-05T09:00:17;20.10;98.50
56162;DHT22;42045;52.986;6.014;2023-06-05T09:02:44;19.70;99.50
56162;DHT22;42045;52.986;6.014;2023-06-05T09:05:16;19.70;99.70
56162;DHT22;42045;52.986;6.014;2023-06-05T09:07:42;20.10;99.90
56162;DHT22;42045;52.986;6.014;2023-06-05T09:10:28;20.30;99.90
56162;DHT22;42045;52.986;6.014;2023-06-05T09:12:58;20.20;99.90
56162;DHT22;42045;52.986;6.014;2023-06-05T09:15:29;19.70;99.70
56162;DHT22;42045;52.986;6.014;2023-06-05T09:20:35;19.80;99.90
56162;DHT22;42045;52.986;6.014;2023-06-05T09:23:02;20.10;99.80
56162;DHT22;42045;52.986;6.014;2023-06-05T09:25:48;20.20;99.90
56162;DHT22;42045;52.986;6.014;2023-06-05T09:28:14;20.40;99.70
56162;DHT22;42045;52.986;6.014;2023-06-05T09:31:00;20.50;99.70
56162;DHT22;42045;52.986;6.014;2023-06-05T09:33:30;20.50;99.40
56162;DHT22;42045;52.986;6.014;2023-06-05T09:36:08;20.50;99.60
56162;DHT22;42045;52.986;6.014;2023-06-05T09:38:34;20.20;99.20
56162;DHT22;42045;52.986;6.014;2023-06-05T09:41:07;20.10;99.90
56162;DHT22;42045;52.986;6.014;2023-06-05T09:43:34;20.30;99.90
56162;DHT22;42045;52.986;6.014;2023-06-05T09:46:06;20.40;99.90
56162;DHT22;42045;52.986;6.014;2023-06-05T09:48:32;20.20;99.20
56162;DHT22;42045;52.986;6.014;2023-06-05T09:53:35;20.40;99.30
56162;DHT22;42045;52.986;6.014;2023-06-05T09:56:01;20.50;99.80
56162;DHT22;42045;52.986;6.014;2023-06-05T09:58:28;20.50;99.70
56162;DHT22;42045;52.986;6.014;2023-06-05T10:00:54;20.20;98.60
56162;DHT22;42045;52.986;6.014;2023-06-05T10:03:26;20.40;99.50
56162;DHT22;42045;52.986;6.014;2023-06-05T10:05:52;20.20;99.50
56162;DHT22;42045;52.986;6.014;2023-06-05T10:08:19;20.50;99.70
56162;DHT22;42045;52.986;6.014;2023-06-05T10:10:44;20.50;99.40
56162;DHT22;42045;52.986;6.014;2023-06-05T10:13:11;20.60;99.30
56162;DHT22;42045;52.986;6.014;2023-06-05T10:15:37;20.60;99.00
56162;DHT22;42045;52.986;6.014;2023-06-05T10:18:04;20.30;98.80
56162;DHT22;42045;52.986;6.014;2023-06-05T10:20:30;20.40;99.00
56162;DHT22;42045;52.986;6.014;2023-06-05T10:22:57;20.60;99.40
56162;DHT22;42045;52.986;6.014;2023-06-05T10:25:23;20.80;99.50
56162;DHT22;42045;52.986;6.014;2023-06-05T10:28:22;20.90;99.50
56162;DHT22;42045;52.986;6.014;2023-06-05T10:31:17;20.80;99.40
56162;DHT22;42045;52.986;6.014;2023-06-05T10:37:29;20.60;98.70
56162;DHT22;42045;52.986;6.014;2023-06-05T10:39:22;20.40;99.20
56162;DHT22;42045;52.986;6.014;2023-06-05T10:41:51;20.60;98.90
56162;DHT22;42045;52.986;6.014;2023-06-05T10:44:16;20.80;99.10
56162;DHT22;42045;52.986;6.014;2023-06-05T10:46:42;20.80;99.40
56162;DHT22;42045;52.986;6.014;2023-06-05T10:49:14;21.00;99.90
56162;DHT22;42045;52.986;6.014;2023-06-05T10:51:49;20.60;99.50
56162;DHT22;42045;52.986;6.014;2023-06-05T10:57:07;20.50;99.80
56162;DHT22;42045;52.986;6.014;2023-06-05T10:59:37;20.60;99.40
56162;DHT22;42045;52.986;6.014;2023-06-05T11:10:19;20.70;99.90
56162;DHT22;42045;52.986;6.014;2023-06-05T11:15:38;21.00;99.90
56162;DHT22;42045;52.986;6.014;2023-06-05T11:20:52;21.10;99.90
56162;DHT22;42045;52.986;6.014;2023-06-05T11:23:17;20.70;99.60
56162;DHT22;42045;52.986;6.014;2023-06-05T11:25:43;20.90;99.90
56162;DHT22;42045;52.986;6.014;2023-06-05T11:28:10;20.90;99.90
56162;DHT22;42045;52.986;6.014;2023-06-05T11:30:42;20.70;99.70
56162;DHT22;42045;52.986;6.014;2023-06-05T11:33:13;20.60;99.90
56162;DHT22;42045;52.986;6.014;2023-06-05T11:35:41;20.80;99.90
56162;DHT22;42045;52.986;6.014;2023-06-05T11:38:10;20.90;99.90
56162;DHT22;42045;52.986;6.014;2023-06-05T11:40:37;20.80;99.90
56162;DHT22;42045;52.986;6.014;2023-06-05T11:43:07;20.80;99.40
56162;DHT22;42045;52.986;6.014;2023-06-05T11:45:33;20.70;99.90
56162;DHT22;42045;52.986;6.014;2023-06-05T11:48:11;20.60;99.90
56162;DHT22;42045;52.986;6.014;2023-06-05T11:50:39;20.70;99.90
56162;DHT22;42045;52.986;6.014;2023-06-05T11:53:10;20.80;99.90
56162;DHT22;42045;52.986;6.014;2023-06-05T11:55:36;20.70;99.90
56162;DHT22;42045;52.986;6.014;2023-06-05T11:58:27;20.70;99.90
56162;DHT22;42045;52.986;6.014;2023-06-05T12:03:44;20.50;99.90
56162;DHT22;42045;52.986;6.014;2023-06-05T12:06:10;20.50;99.90
56162;DHT22;42045;52.986;6.014;2023-06-05T12:08:40;20.70;99.90
56162;DHT22;42045;52.986;6.014;2023-06-05T12:11:27;20.80;99.90
56162;DHT22;42045;52.986;6.014;2023-06-05T12:13:54;20.90;99.90
56162;DHT22;42045;52.986;6.014;2023-06-05T12:16:29;20.80;99.90
56162;DHT22;42045;52.986;6.014;2023-06-05T12:18:57;21.00;99.90
56162;DHT22;42045;52.986;6.014;2023-06-05T12:21:24;21.10;99.90
56162;DHT22;42045;52.986;6.014;2023-06-05T12:23:50;20.80;99.90
56162;DHT22;42045;52.986;6.014;2023-06-05T12:26:16;20.90;99.90
56162;DHT22;42045;52.986;6.014;2023-06-05T12:28:43;20.80;99.90
56162;DHT22;42045;52.986;6.014;2023-06-05T12:31:31;20.90;99.90
56162;DHT22;42045;52.986;6.014;2023-06-05T12:33:56;20.90;99.90
56162;DHT22;42045;52.986;6.014;2023-06-05T12:36:22;21.00;99.90
56162;DHT22;42045;52.986;6.014;2023-06-05T12:38:47;20.90;99.90
56162;DHT22;42045;52.986;6.014;2023-06-05T12:41:13;20.70;99.90
56162;DHT22;42045;52.986;6.014;2023-06-05T12:43:39;20.70;99.90
56162;DHT22;42045;52.986;6.014;2023-06-05T12:46:05;20.70;99.90
56162;DHT22;42045;52.986;6.014;2023-06-05T12:48:33;20.60;99.90
56162;DHT22;42045;52.986;6.014;2023-06-05T12:50:58;20.70;99.90
56162;DHT22;42045;52.986;6.014;2023-06-05T12:53:24;20.70;99.90
56162;DHT22;42045;52.986;6.014;2023-06-05T12:55:50;20.40;99.90
56162;DHT22;42045;52.986;6.014;2023-06-05T12:58:16;20.40;99.90
56162;DHT22;42045;52.986;6.014;2023-06-05T13:00:42;20.50;99.90
56162;DHT22;42045;52.986;6.014;2023-06-05T13:03:09;20.60;99.90
56162;DHT22;42045;52.986;6.014;2023-06-05T13:05:35;20.20;99.90
56162;DHT22;42045;52.986;6.014;2023-06-05T13:08:01;20.10;99.90
56162;DHT22;42045;52.986;6.014;2023-06-05T13:10:28;20.00;99.90
56162;DHT22;42045;52.986;6.014;2023-06-05T13:12:53;20.00;99.90
56162;DHT22;42045;52.986;6.014;2023-06-05T13:15:19;20.00;99.90
56162;DHT22;42045;52.986;6.014;2023-06-05T13:17:45;19.80;99.90
56162;DHT22;42045;52.986;6.014;2023-06-05T13:20:12;19.90;99.90
56162;DHT22;42045;52.986;6.014;2023-06-05T13:22:39;20.10;99.90
56162;DHT22;42045;52.986;6.014;2023-06-05T13:25:06;20.20;99.90
56162;DHT22;42045;52.986;6.014;2023-06-05T13:27:32;20.10;99.90
56162;DHT22;42045;52.986;6.014;2023-06-05T13:29:58;20.30;99.90
56162;DHT22;42045;52.986;6.014;2023-06-05T13:32:24;20.20;99.90
56162;DHT22;42045;52.986;6.014;2023-06-05T13:34:50;20.00;99.90
56162;DHT22;42045;52.986;6.014;2023-06-05T13:37:16;20.30;99.90
56162;DHT22;42045;52.986;6.014;2023-06-05T13:39:41;20.10;99.90
56162;DHT22;42045;52.986;6.014;2023-06-05T13:42:07;20.00;99.90
56162;DHT22;42045;52.986;6.014;2023-06-05T13:44:34;20.00;99.90
56162;DHT22;42045;52.986;6.014;2023-06-05T13:47:00;20.00;99.90
56162;DHT22;42045;52.986;6.014;2023-06-05T13:49:29;19.90;99.90
56162;DHT22;42045;52.986;6.014;2023-06-05T13:51:55;19.90;99.90
56162;DHT22;42045;52.986;6.014;2023-06-05T13:54:21;19.80;99.90
56162;DHT22;42045;52.986;6.014;2023-06-05T13:56:46;19.60;99.90
56162;DHT22;42045;52.986;6.014;2023-06-05T13:59:12;19.60;99.90
56162;DHT22;42045;52.986;6.014;2023-06-05T14:01:38;19.70;99.90
56162;DHT22;42045;52.986;6.014;2023-06-05T14:04:03;19.60;99.90
56162;DHT22;42045;52.986;6.014;2023-06-05T14:06:29;19.50;99.90
56162;DHT22;42045;52.986;6.014;2023-06-05T14:08:55;19.30;99.90
56162;DHT22;42045;52.986;6.014;2023-06-05T14:11:21;19.20;99.90
56162;DHT22;42045;52.986;6.014;2023-06-05T14:13:47;19.10;99.90
56162;DHT22;42045;52.986;6.014;2023-06-05T14:16:13;19.00;99.90
56162;DHT22;42045;52.986;6.014;2023-06-05T14:18:39;19.20;99.90
56162;DHT22;42045;52.986;6.014;2023-06-05T14:21:04;19.20;99.90
56162;DHT22;42045;52.986;6.014;2023-06-05T14:23:30;19.20;99.90
56162;DHT22;42045;52.986;6.014;2023-06-05T14:25:56;19.20;99.90
56162;DHT22;42045;52.986;6.014;2023-06-05T14:28:22;19.30;99.90
56162;DHT22;42045;52.986;6.014;2023-06-05T14:30:48;19.40;99.90
56162;DHT22;42045;52.986;6.014;2023-06-05T14:33:14;19.40;99.90
56162;DHT22;42045;52.986;6.014;2023-06-05T14:35:42;19.20;99.90
56162;DHT22;42045;52.986;6.014;2023-06-05T14:38:08;19.30;99.90
56162;DHT22;42045;52.986;6.014;2023-06-05T14:40:38;19.30;99.90
56162;DHT22;42045;52.986;6.014;2023-06-05T14:43:04;19.20;99.90
56162;DHT22;42045;52.986;6.014;2023-06-05T14:45:29;19.10;99.90
56162;DHT22;42045;52.986;6.014;2023-06-05T14:47:55;19.10;99.90
56162;DHT22;42045;52.986;6.014;2023-06-05T14:50:20;19.10;99.90
56162;DHT22;42045;52.986;6.014;2023-06-05T14:52:46;19.00;99.90
56162;DHT22;42045;52.986;6.014;2023-06-05T14:55:12;18.70;99.90
56162;DHT22;42045;52.986;6.014;2023-06-05T14:57:37;18.70;99.90
56162;DHT22;42045;52.986;6.014;2023-06-05T15:00:05;18.70;99.90
56162;DHT22;42045;52.986;6.014;2023-06-05T15:02:31;18.90;99.90
56162;DHT22;42045;52.986;6.014;2023-06-05T15:04:57;18.90;99.90
56162;DHT22;42045;52.986;6.014;2023-06-05T15:07:38;18.70;99.90
56162;DHT22;42045;52.986;6.014;2023-06-05T15:10:05;18.80;99.90
56162;DHT22;42045;52.986;6.014;2023-06-05T15:12:31;18.50;99.90
56162;DHT22;42045;52.986;6.014;2023-06-05T15:14:57;18.50;99.90
56162;DHT22;42045;52.986;6.014;2023-06-05T15:17:23;18.50;99.90
56162;DHT22;42045;52.986;6.014;2023-06-05T15:19:49;18.50;99.90
56162;DHT22;42045;52.986;6.014;2023-06-05T15:22:14;18.40;99.90
56162;DHT22;42045;52.986;6.014;2023-06-05T15:24:40;18.30;99.90
56162;DHT22;42045;52.986;6.014;2023-06-05T15:27:06;18.50;99.90
56162;DHT22;42045;52.986;6.014;2023-06-05T15:29:33;18.40;99.90
56162;DHT22;42045;52.986;6.014;2023-06-05T15:31:58;18.40;99.90
56162;DHT22;42045;52.986;6.014;2023-06-05T15:34:24;18.40;99.90
56162;DHT22;42045;52.986;6.014;2023-06-05T15:36:50;18.30;99.90
56162;DHT22;42045;52.986;6.014;2023-06-05T15:39:15;18.30;99.90
56162;DHT22;42045;52.986;6.014;2023-06-05T15:41:41;18.40;99.90
56162;DHT22;42045;52.986;6.014;2023-06-05T15:44:07;18.30;99.90
56162;DHT22;42045;52.986;6.014;2023-06-05T15:46:35;18.30;99.90
56162;DHT22;42045;52.986;6.014;2023-06-05T15:49:01;18.20;99.90
56162;DHT22;42045;52.986;6.014;2023-06-05T15:51:27;18.10;99.90
56162;DHT22;42045;52.986;6.014;2023-06-05T15:53:54;18.00;99.90
56162;DHT22;42045;52.986;6.014;2023-06-05T15:56:23;17.90;99.90
56162;DHT22;42045;52.986;6.014;2023-06-05T15:58:50;17.90;99.90
56162;DHT22;42045;52.986;6.014;2023-06-05T16:01:16;17.70;99.90
56162;DHT22;42045;52.986;6.014;2023-06-05T16:03:42;17.60;99.90
56162;DHT22;42045;52.986;6.014;2023-06-05T16:06:07;17.50;99.90
56162;DHT22;42045;52.986;6.014;2023-06-05T16:08:37;17.50;99.90